sensor_id;sensor_type;location;lat;lon;timestamp;pressure;altitude;pressure_sealevel;temperature;humidity
27146;BME280;17980;51.744;7.190;2022-07-06T00:02:07;101996.91;;;19.84;68.27
27146;BME280;17980;51.744;7.190;2022-07-06T00:04:34;102000.26;;;19.63;68.93
27146;BME280;17980;51.744;7.190;2022-07-06T00:07:01;102003.20;;;19.61;69.33
27146;BME280;17980;51.744;7.190;2022-07-06T00:09:29;101996.23;;;19.77;68.76
27146;BME280;17980;51.744;7.190;2022-07-06T00:11:56;101998.64;;;19.85;68.64
27146;BME280;17980;51.744;7.190;2022-07-06T00:14:23;101995.54;;;19.80;68.55
27146;BME280;17980;51.744;7.190;2022-07-06T00:16:50;101997.92;;;19.87;68.29
27146;BME280;17980;51.744;7.190;2022-07-06T00:19:18;101992.03;;;19.86;68.45
27146;BME280;17980;51.744;7.190;2022-07-06T00:21:45;101993.63;;;19.80;68.68
27146;BME280;17980;51.744;7.190;2022-07-06T00:24:12;101991.26;;;20.00;68.06
27146;BME280;17980;51.744;7.190;2022-07-06T00:26:39;101995.34;;;19.85;68.26
27146;BME280;17980;51.744;7.190;2022-07-06T00:29:07;101988.67;;;19.99;67.64
27146;BME280;17980;51.744;7.190;2022-07-06T00:31:34;101998.64;;;19.85;68.08
27146;BME280;17980;51.744;7.190;2022-07-06T00:34:02;102010.28;;;19.68;68.68
27146;BME280;17980;51.744;7.190;2022-07-06T00:36:29;101994.23;;;19.94;67.99
27146;BME280;17980;51.744;7.190;2022-07-06T00:38:56;102002.22;;;19.46;69.38
27146;BME280;17980;51.744;7.190;2022-07-06T00:41:23;102001.52;;;19.48;69.17
27146;BME280;17980;51.744;7.190;2022-07-06T00:43:52;101998.90;;;19.54;69.38
27146;BME280;17980;51.744;7.190;2022-07-06T00:46:23;102002.78;;;19.37;69.46
27146;BME280;17980;51.744;7.190;2022-07-06T00:48:53;102001.38;;;19.41;69.73
27146;BME280;17980;51.744;7.190;2022-07-06T00:51:23;102001.58;;;19.31;70.00
27146;BME280;17980;51.744;7.190;2022-07-06T00:53:52;102005.75;;;19.23;70.35
27146;BME280;17980;51.744;7.190;2022-07-06T00:56:22;102000.02;;;19.33;69.83
27146;BME280;17980;51.744;7.190;2022-07-06T00:58:49;102006.78;;;19.22;70.27
27146;BME280;17980;51.744;7.190;2022-07-06T01:01:16;102006.27;;;19.26;70.07
27146;BME280;17980;51.744;7.190;2022-07-06T01:03:44;102005.20;;;19.32;70.08
27146;BME280;17980;51.744;7.190;2022-07-06T01:06:11;102005.20;;;19.32;70.09
27146;BME280;17980;51.744;7.190;2022-07-06T01:08:39;102004.92;;;18.98;70.89
27146;BME280;17980;51.744;7.190;2022-07-06T01:11:06;102007.20;;;18.90;71.42
27146;BME280;17980;51.744;7.190;2022-07-06T01:13:34;102011.30;;;18.78;71.23
27146;BME280;17980;51.744;7.190;2022-07-06T01:16:01;102011.30;;;19.10;70.70
27146;BME280;17980;51.744;7.190;2022-07-06T01:18:29;102009.87;;;19.35;70.14
27146;BME280;17980;51.744;7.190;2022-07-06T01:21:08;102007.38;;;19.57;69.00
27146;BME280;17980;51.744;7.190;2022-07-06T01:26:21;102001.25;;;19.22;70.18
27146;BME280;17980;51.744;7.190;2022-07-06T01:28:49;102006.34;;;19.58;68.87
27146;BME280;17980;51.744;7.190;2022-07-06T01:31:20;102007.94;;;19.44;69.19
27146;BME280;17980;51.744;7.190;2022-07-06T01:33:48;102010.57;;;19.25;70.02
27146;BME280;17980;51.744;7.190;2022-07-06T01:36:16;102012.56;;;19.56;68.96
27146;BME280;17980;51.744;7.190;2022-07-06T01:38:47;102009.98;;;19.54;68.51
27146;BME280;17980;51.744;7.190;2022-07-06T01:41:14;102002.89;;;19.48;68.89
27146;BME280;17980;51.744;7.190;2022-07-06T01:46:21;101992.09;;;19.25;69.44
27146;BME280;17980;51.744;7.190;2022-07-06T01:48:48;101991.55;;;19.26;69.46
27146;BME280;17980;51.744;7.190;2022-07-06T01:51:15;101994.16;;;19.19;69.61
27146;BME280;17980;51.744;7.190;2022-07-06T01:53:43;101996.80;;;18.67;71.86
27146;BME280;17980;51.744;7.190;2022-07-06T01:56:11;101997.13;;;18.81;72.01
27146;BME280;17980;51.744;7.190;2022-07-06T01:58:39;101990.05;;;18.49;72.92
27146;BME280;17980;51.744;7.190;2022-07-06T02:01:10;101997.64;;;18.55;73.15
27146;BME280;17980;51.744;7.190;2022-07-06T02:03:38;101994.39;;;18.89;72.20
27146;BME280;17980;51.744;7.190;2022-07-06T02:06:06;101996.09;;;18.73;72.38
27146;BME280;17980;51.744;7.190;2022-07-06T02:08:33;101999.20;;;18.58;73.24
27146;BME280;17980;51.744;7.190;2022-07-06T02:11:02;101991.58;;;18.27;73.85
27146;BME280;17980;51.744;7.190;2022-07-06T02:13:29;101989.87;;;18.47;73.91
27146;BME280;17980;51.744;7.190;2022-07-06T02:15:57;101989.37;;;18.47;73.99
27146;BME280;17980;51.744;7.190;2022-07-06T02:18:24;101986.72;;;18.13;75.09
27146;BME280;17980;51.744;7.190;2022-07-06T02:20:51;101989.02;;;18.42;74.26
27146;BME280;17980;51.744;7.190;2022-07-06T02:23:19;101988.11;;;18.17;75.06
27146;BME280;17980;51.744;7.190;2022-07-06T02:28:25;101985.38;;;18.58;73.61
27146;BME280;17980;51.744;7.190;2022-07-06T02:30:52;101985.72;;;18.26;74.38
27146;BME280;17980;51.744;7.190;2022-07-06T02:33:19;101979.66;;;18.22;74.50
27146;BME280;17980;51.744;7.190;2022-07-06T02:35:47;101989.00;;;18.34;74.40
27146;BME280;17980;51.744;7.190;2022-07-06T02:38:14;101983.65;;;18.32;74.28
27146;BME280;17980;51.744;7.190;2022-07-06T02:40:41;101980.05;;;18.40;74.24
27146;BME280;17980;51.744;7.190;2022-07-06T02:43:08;101984.34;;;18.51;73.74
27146;BME280;17980;51.744;7.190;2022-07-06T02:45:36;101982.81;;;18.40;73.86
27146;BME280;17980;51.744;7.190;2022-07-06T02:48:04;101978.61;;;18.11;74.65
27146;BME280;17980;51.744;7.190;2022-07-06T02:50:31;101985.89;;;18.37;73.42
27146;BME280;17980;51.744;7.190;2022-07-06T02:52:58;101980.38;;;18.24;73.91
27146;BME280;17980;51.744;7.190;2022-07-06T02:55:28;101986.06;;;18.35;73.54
27146;BME280;17980;51.744;7.190;2022-07-06T02:57:55;101987.21;;;18.00;74.50
27146;BME280;17980;51.744;7.190;2022-07-06T03:00:22;101989.23;;;17.89;74.98
27146;BME280;17980;51.744;7.190;2022-07-06T03:02:50;101993.45;;;18.02;74.93
27146;BME280;17980;51.744;7.190;2022-07-06T03:05:17;101991.98;;;17.85;75.61
27146;BME280;17980;51.744;7.190;2022-07-06T03:07:44;101996.13;;;17.89;75.21
27146;BME280;17980;51.744;7.190;2022-07-06T03:10:12;101991.37;;;18.04;74.76
27146;BME280;17980;51.744;7.190;2022-07-06T03:12:39;102002.63;;;18.15;74.32
27146;BME280;17980;51.744;7.190;2022-07-06T03:15:08;102002.64;;;18.31;73.53
27146;BME280;17980;51.744;7.190;2022-07-06T03:17:36;102010.98;;;18.89;71.89
27146;BME280;17980;51.744;7.190;2022-07-06T03:20:05;102004.92;;;19.02;70.87
27146;BME280;17980;51.744;7.190;2022-07-06T03:22:33;102008.52;;;19.23;70.01
27146;BME280;17980;51.744;7.190;2022-07-06T03:25:00;102013.54;;;18.74;71.33
27146;BME280;17980;51.744;7.190;2022-07-06T03:27:27;102015.81;;;18.99;70.81
27146;BME280;17980;51.744;7.190;2022-07-06T03:29:54;102017.54;;;19.13;70.50
27146;BME280;17980;51.744;7.190;2022-07-06T03:32:22;102014.75;;;18.51;72.30
27146;BME280;17980;51.744;7.190;2022-07-06T03:34:49;102017.84;;;18.23;73.21
27146;BME280;17980;51.744;7.190;2022-07-06T03:37:16;102015.23;;;18.13;73.88
27146;BME280;17980;51.744;7.190;2022-07-06T03:39:44;102015.53;;;17.98;74.88
27146;BME280;17980;51.744;7.190;2022-07-06T03:42:11;102021.08;;;18.06;74.32
27146;BME280;17980;51.744;7.190;2022-07-06T03:44:38;102014.31;;;17.96;75.00
27146;BME280;17980;51.744;7.190;2022-07-06T03:47:06;102011.12;;;17.83;75.15
27146;BME280;17980;51.744;7.190;2022-07-06T03:49:33;102003.66;;;17.71;75.51
27146;BME280;17980;51.744;7.190;2022-07-06T03:52:00;102011.83;;;17.85;75.56
27146;BME280;17980;51.744;7.190;2022-07-06T03:54:27;102007.06;;;17.57;77.01
27146;BME280;17980;51.744;7.190;2022-07-06T03:56:54;101999.73;;;17.78;75.82
27146;BME280;17980;51.744;7.190;2022-07-06T03:59:22;101999.06;;;17.88;75.58
27146;BME280;17980;51.744;7.190;2022-07-06T04:01:49;102003.63;;;18.05;75.46
27146;BME280;17980;51.744;7.190;2022-07-06T04:04:16;102006.42;;;18.18;74.55
27146;BME280;17980;51.744;7.190;2022-07-06T04:06:43;102007.43;;;18.00;75.38
27146;BME280;17980;51.744;7.190;2022-07-06T04:09:11;102007.27;;;18.06;74.97
27146;BME280;17980;51.744;7.190;2022-07-06T04:11:38;102010.76;;;18.37;73.91
27146;BME280;17980;51.744;7.190;2022-07-06T04:14:05;102007.92;;;18.00;75.04
27146;BME280;17980;51.744;7.190;2022-07-06T04:16:33;102017.14;;;18.25;74.20
27146;BME280;17980;51.744;7.190;2022-07-06T04:19:00;102011.30;;;18.45;73.91
27146;BME280;17980;51.744;7.190;2022-07-06T04:21:27;102016.16;;;18.96;72.13
27146;BME280;17980;51.744;7.190;2022-07-06T04:23:54;102017.53;;;19.21;70.81
27146;BME280;17980;51.744;7.190;2022-07-06T04:26:22;102019.02;;;18.12;74.26
27146;BME280;17980;51.744;7.190;2022-07-06T04:28:49;102020.98;;;19.02;71.54
27146;BME280;17980;51.744;7.190;2022-07-06T04:31:16;102023.08;;;19.08;70.97
27146;BME280;17980;51.744;7.190;2022-07-06T04:36:24;102025.17;;;18.98;71.72
27146;BME280;17980;51.744;7.190;2022-07-06T04:38:51;102026.34;;;19.08;71.21
27146;BME280;17980;51.744;7.190;2022-07-06T04:41:18;102022.91;;;18.93;71.60
27146;BME280;17980;51.744;7.190;2022-07-06T04:43:45;102020.62;;;19.18;70.88
27146;BME280;17980;51.744;7.190;2022-07-06T04:46:13;102024.08;;;19.32;70.30
27146;BME280;17980;51.744;7.190;2022-07-06T04:48:40;102018.83;;;19.46;70.36
27146;BME280;17980;51.744;7.190;2022-07-06T04:51:08;102011.76;;;19.35;70.07
27146;BME280;17980;51.744;7.190;2022-07-06T04:53:35;102010.30;;;19.64;69.71
27146;BME280;17980;51.744;7.190;2022-07-06T04:56:04;102010.04;;;19.86;69.13
27146;BME280;17980;51.744;7.190;2022-07-06T04:58:31;102004.55;;;20.13;68.33
27146;BME280;17980;51.744;7.190;2022-07-06T05:00:58;102010.63;;;20.59;67.20
27146;BME280;17980;51.744;7.190;2022-07-06T05:03:26;102008.17;;;20.64;66.67
27146;BME280;17980;51.744;7.190;2022-07-06T05:05:53;102008.54;;;20.10;67.73
27146;BME280;17980;51.744;7.190;2022-07-06T05:08:20;102008.25;;;20.52;67.07
27146;BME280;17980;51.744;7.190;2022-07-06T05:10:49;102006.53;;;20.27;67.46
27146;BME280;17980;51.744;7.190;2022-07-06T05:13:18;102005.48;;;20.75;66.87
27146;BME280;17980;51.744;7.190;2022-07-06T05:15:46;102006.63;;;21.04;65.61
27146;BME280;17980;51.744;7.190;2022-07-06T05:18:13;102001.95;;;21.34;65.16
27146;BME280;17980;51.744;7.190;2022-07-06T05:20:40;102003.46;;;21.56;64.14
27146;BME280;17980;51.744;7.190;2022-07-06T05:25:44;101997.97;;;21.47;64.58
27146;BME280;17980;51.744;7.190;2022-07-06T05:28:12;102004.61;;;21.76;63.68
27146;BME280;17980;51.744;7.190;2022-07-06T05:30:39;102007.23;;;21.99;62.93
27146;BME280;17980;51.744;7.190;2022-07-06T05:33:07;102009.59;;;21.32;64.64
27146;BME280;17980;51.744;7.190;2022-07-06T05:35:34;102018.09;;;21.49;64.58
27146;BME280;17980;51.744;7.190;2022-07-06T05:38:01;102011.20;;;21.60;64.25
27146;BME280;17980;51.744;7.190;2022-07-06T05:40:29;102016.47;;;21.70;64.10
27146;BME280;17980;51.744;7.190;2022-07-06T05:42:56;102018.27;;;21.33;65.11
27146;BME280;17980;51.744;7.190;2022-07-06T05:45:23;102017.75;;;21.48;65.45
27146;BME280;17980;51.744;7.190;2022-07-06T05:47:51;102021.78;;;21.76;64.30
27146;BME280;17980;51.744;7.190;2022-07-06T05:50:36;102015.81;;;21.53;65.04
27146;BME280;17980;51.744;7.190;2022-07-06T05:53:05;102021.92;;;21.48;65.38
27146;BME280;17980;51.744;7.190;2022-07-06T05:55:33;102024.17;;;21.34;65.76
27146;BME280;17980;51.744;7.190;2022-07-06T05:58:00;102025.42;;;21.46;65.82
27146;BME280;17980;51.744;7.190;2022-07-06T06:00:28;102034.43;;;21.78;64.92
27146;BME280;17980;51.744;7.190;2022-07-06T06:02:55;102036.31;;;21.33;65.65
27146;BME280;17980;51.744;7.190;2022-07-06T06:05:23;102033.77;;;21.61;65.70
27146;BME280;17980;51.744;7.190;2022-07-06T06:07:50;102041.63;;;21.98;64.58
27146;BME280;17980;51.744;7.190;2022-07-06T06:10:20;102038.30;;;22.03;64.03
27146;BME280;17980;51.744;7.190;2022-07-06T06:12:48;102037.44;;;21.62;65.18
27146;BME280;17980;51.744;7.190;2022-07-06T06:15:16;102042.25;;;21.64;64.91
27146;BME280;17980;51.744;7.190;2022-07-06T06:20:23;102050.66;;;21.86;64.93
27146;BME280;17980;51.744;7.190;2022-07-06T06:22:52;102046.44;;;22.15;63.79
27146;BME280;17980;51.744;7.190;2022-07-06T06:25:21;102047.27;;;22.78;62.18
27146;BME280;17980;51.744;7.190;2022-07-06T06:27:49;102049.04;;;22.97;61.47
27146;BME280;17980;51.744;7.190;2022-07-06T06:30:17;102050.16;;;22.23;63.53
27146;BME280;17980;51.744;7.190;2022-07-06T06:32:44;102046.33;;;22.39;63.28
27146;BME280;17980;51.744;7.190;2022-07-06T06:35:12;102052.97;;;23.09;61.91
27146;BME280;17980;51.744;7.190;2022-07-06T06:37:39;102054.81;;;23.34;60.35
27146;BME280;17980;51.744;7.190;2022-07-06T06:40:09;102048.80;;;23.48;60.30
27146;BME280;17980;51.744;7.190;2022-07-06T06:42:37;102048.71;;;23.70;59.75
27146;BME280;17980;51.744;7.190;2022-07-06T06:45:06;102050.19;;;23.83;59.16
27146;BME280;17980;51.744;7.190;2022-07-06T06:47:34;102040.69;;;24.50;57.59
27146;BME280;17980;51.744;7.190;2022-07-06T06:50:01;102045.40;;;25.01;55.88
27146;BME280;17980;51.744;7.190;2022-07-06T06:52:28;102040.28;;;24.16;58.55
27146;BME280;17980;51.744;7.190;2022-07-06T06:54:56;102040.35;;;24.94;55.85
27146;BME280;17980;51.744;7.190;2022-07-06T06:57:23;102046.70;;;24.47;57.44
27146;BME280;17980;51.744;7.190;2022-07-06T06:59:51;102045.92;;;24.36;57.51
27146;BME280;17980;51.744;7.190;2022-07-06T07:02:18;102053.58;;;24.51;56.28
27146;BME280;17980;51.744;7.190;2022-07-06T07:04:45;102054.19;;;24.40;56.55
27146;BME280;17980;51.744;7.190;2022-07-06T07:07:12;102058.70;;;23.12;59.73
27146;BME280;17980;51.744;7.190;2022-07-06T07:09:40;102058.13;;;23.16;59.70
27146;BME280;17980;51.744;7.190;2022-07-06T07:12:08;102059.25;;;23.40;59.29
27146;BME280;17980;51.744;7.190;2022-07-06T07:14:36;102055.37;;;24.72;56.26
27146;BME280;17980;51.744;7.190;2022-07-06T07:17:04;102067.95;;;23.41;58.85
27146;BME280;17980;51.744;7.190;2022-07-06T07:19:31;102065.47;;;23.42;59.06
27146;BME280;17980;51.744;7.190;2022-07-06T07:21:59;102066.87;;;23.87;57.99
27146;BME280;17980;51.744;7.190;2022-07-06T07:24:26;102072.64;;;23.40;59.26
27146;BME280;17980;51.744;7.190;2022-07-06T07:26:53;102062.16;;;22.23;61.66
27146;BME280;17980;51.744;7.190;2022-07-06T07:29:20;102062.87;;;22.21;62.00
27146;BME280;17980;51.744;7.190;2022-07-06T07:31:48;102062.27;;;23.06;60.03
27146;BME280;17980;51.744;7.190;2022-07-06T07:34:15;102060.48;;;22.98;59.71
27146;BME280;17980;51.744;7.190;2022-07-06T07:36:43;102068.17;;;22.52;61.01
27146;BME280;17980;51.744;7.190;2022-07-06T07:39:11;102070.77;;;22.97;59.72
27146;BME280;17980;51.744;7.190;2022-07-06T07:41:38;102064.55;;;22.84;59.80
27146;BME280;17980;51.744;7.190;2022-07-06T07:44:06;102071.24;;;23.01;58.91
27146;BME280;17980;51.744;7.190;2022-07-06T07:46:33;102070.96;;;22.85;59.47
27146;BME280;17980;51.744;7.190;2022-07-06T07:49:00;102070.16;;;22.22;60.71
27146;BME280;17980;51.744;7.190;2022-07-06T07:51:28;102068.92;;;22.83;59.50
27146;BME280;17980;51.744;7.190;2022-07-06T07:53:55;102077.23;;;23.26;58.50
27146;BME280;17980;51.744;7.190;2022-07-06T07:56:22;102080.22;;;23.35;58.43
27146;BME280;17980;51.744;7.190;2022-07-06T07:58:50;102070.70;;;22.91;58.55
27146;BME280;17980;51.744;7.190;2022-07-06T08:01:17;102081.23;;;22.52;58.43
27146;BME280;17980;51.744;7.190;2022-07-06T08:03:44;102084.30;;;21.91;59.28
27146;BME280;17980;51.744;7.190;2022-07-06T08:06:12;102086.28;;;21.86;59.69
27146;BME280;17980;51.744;7.190;2022-07-06T08:08:39;102074.73;;;22.45;57.33
27146;BME280;17980;51.744;7.190;2022-07-06T08:11:06;102078.80;;;22.12;58.08
27146;BME280;17980;51.744;7.190;2022-07-06T08:13:35;102073.81;;;22.59;57.10
27146;BME280;17980;51.744;7.190;2022-07-06T08:16:04;102072.95;;;22.69;56.43
27146;BME280;17980;51.744;7.190;2022-07-06T08:21:11;102077.85;;;23.21;55.77
27146;BME280;17980;51.744;7.190;2022-07-06T08:23:38;102075.27;;;23.31;55.84
27146;BME280;17980;51.744;7.190;2022-07-06T08:26:06;102078.03;;;23.09;55.07
27146;BME280;17980;51.744;7.190;2022-07-06T08:28:33;102073.70;;;23.67;53.98
27146;BME280;17980;51.744;7.190;2022-07-06T08:31:00;102083.64;;;24.25;53.05
27146;BME280;17980;51.744;7.190;2022-07-06T08:33:28;102081.64;;;24.36;52.77
27146;BME280;17980;51.744;7.190;2022-07-06T08:35:55;102085.12;;;24.14;52.26
27146;BME280;17980;51.744;7.190;2022-07-06T08:38:22;102077.11;;;24.60;51.37
27146;BME280;17980;51.744;7.190;2022-07-06T08:40:50;102078.06;;;23.83;52.31
27146;BME280;17980;51.744;7.190;2022-07-06T08:43:18;102075.02;;;23.78;52.88
27146;BME280;17980;51.744;7.190;2022-07-06T08:45:45;102065.27;;;25.15;51.22
27146;BME280;17980;51.744;7.190;2022-07-06T08:50:53;102071.14;;;26.06;48.92
27146;BME280;17980;51.744;7.190;2022-07-06T08:53:22;102071.70;;;28.32;44.93
27146;BME280;17980;51.744;7.190;2022-07-06T08:55:50;102064.72;;;29.64;42.97
27146;BME280;17980;51.744;7.190;2022-07-06T08:58:18;102062.05;;;27.29;45.08
27146;BME280;17980;51.744;7.190;2022-07-06T09:00:47;102063.20;;;26.80;45.70
27146;BME280;17980;51.744;7.190;2022-07-06T09:03:15;102062.92;;;26.34;46.90
27146;BME280;17980;51.744;7.190;2022-07-06T09:08:28;102063.15;;;26.71;46.41
27146;BME280;17980;51.744;7.190;2022-07-06T09:10:57;102057.81;;;26.62;46.47
27146;BME280;17980;51.744;7.190;2022-07-06T09:13:27;102068.39;;;26.38;45.84
27146;BME280;17980;51.744;7.190;2022-07-06T09:15:54;102062.07;;;27.13;45.34
27146;BME280;17980;51.744;7.190;2022-07-06T09:21:01;102053.71;;;32.71;37.04
27146;BME280;17980;51.744;7.190;2022-07-06T09:23:29;102059.27;;;32.66;37.31
27146;BME280;17980;51.744;7.190;2022-07-06T09:25:56;102049.88;;;37.98;32.48
27146;BME280;17980;51.744;7.190;2022-07-06T09:28:23;102049.88;;;37.98;32.48
27146;BME280;17980;51.744;7.190;2022-07-06T09:30:55;102058.62;;;40.30;30.43
27146;BME280;17980;51.744;7.190;2022-07-06T09:33:22;102058.89;;;36.98;31.74
27146;BME280;17980;51.744;7.190;2022-07-06T09:35:50;102047.66;;;32.90;35.90
27146;BME280;17980;51.744;7.190;2022-07-06T09:38:19;102053.86;;;28.48;41.05
27146;BME280;17980;51.744;7.190;2022-07-06T09:40:46;102050.11;;;27.24;43.55
27146;BME280;17980;51.744;7.190;2022-07-06T09:43:16;102055.75;;;27.34;43.59
27146;BME280;17980;51.744;7.190;2022-07-06T09:45:46;102043.08;;;29.41;41.02
27146;BME280;17980;51.744;7.190;2022-07-06T09:48:14;102040.31;;;34.30;35.75
27146;BME280;17980;51.744;7.190;2022-07-06T09:50:45;102044.51;;;34.20;34.91
27146;BME280;17980;51.744;7.190;2022-07-06T09:53:13;102037.34;;;33.94;34.68
27146;BME280;17980;51.744;7.190;2022-07-06T09:55:44;102044.18;;;29.52;39.03
27146;BME280;17980;51.744;7.190;2022-07-06T09:58:12;102049.09;;;30.23;38.87
27146;BME280;17980;51.744;7.190;2022-07-06T10:00:40;102049.11;;;32.65;35.84
27146;BME280;17980;51.744;7.190;2022-07-06T10:03:07;102042.55;;;33.22;35.75
27146;BME280;17980;51.744;7.190;2022-07-06T10:05:37;102047.56;;;30.45;37.52
27146;BME280;17980;51.744;7.190;2022-07-06T10:08:06;102041.86;;;29.25;39.50
27146;BME280;17980;51.744;7.190;2022-07-06T10:10:37;102041.23;;;27.18;42.74
27146;BME280;17980;51.744;7.190;2022-07-06T10:13:06;102042.97;;;27.03;42.85
27146;BME280;17980;51.744;7.190;2022-07-06T10:15:35;102046.88;;;26.54;43.42
27146;BME280;17980;51.744;7.190;2022-07-06T10:18:04;102047.59;;;26.27;44.05
27146;BME280;17980;51.744;7.190;2022-07-06T10:20:34;102046.94;;;26.95;43.15
27146;BME280;17980;51.744;7.190;2022-07-06T10:23:04;102055.48;;;25.85;44.93
27146;BME280;17980;51.744;7.190;2022-07-06T10:28:12;102046.78;;;26.36;44.43
27146;BME280;17980;51.744;7.190;2022-07-06T10:30:42;102052.62;;;27.32;43.45
27146;BME280;17980;51.744;7.190;2022-07-06T10:33:10;102049.41;;;27.45;42.84
27146;BME280;17980;51.744;7.190;2022-07-06T10:35:41;102051.75;;;27.48;42.73
27146;BME280;17980;51.744;7.190;2022-07-06T10:38:10;102048.95;;;27.23;42.85
27146;BME280;17980;51.744;7.190;2022-07-06T10:40:39;102046.31;;;27.53;42.27
27146;BME280;17980;51.744;7.190;2022-07-06T10:43:32;102050.31;;;25.25;45.46
27146;BME280;17980;51.744;7.190;2022-07-06T10:46:01;102038.84;;;26.64;43.81
27146;BME280;17980;51.744;7.190;2022-07-06T10:48:35;102045.41;;;26.00;43.83
27146;BME280;17980;51.744;7.190;2022-07-06T10:51:03;102043.61;;;25.60;45.33
27146;BME280;17980;51.744;7.190;2022-07-06T10:53:33;102048.91;;;25.46;45.83
27146;BME280;17980;51.744;7.190;2022-07-06T10:56:04;102039.41;;;25.60;45.14
27146;BME280;17980;51.744;7.190;2022-07-06T10:58:46;102042.38;;;24.96;46.75
27146;BME280;17980;51.744;7.190;2022-07-06T11:01:15;102042.23;;;24.66;47.18
27146;BME280;17980;51.744;7.190;2022-07-06T11:03:43;102037.59;;;24.56;47.16
27146;BME280;17980;51.744;7.190;2022-07-06T11:06:14;102035.15;;;24.64;47.56
27146;BME280;17980;51.744;7.190;2022-07-06T11:08:50;102031.37;;;25.54;45.59
27146;BME280;17980;51.744;7.190;2022-07-06T11:11:21;102034.53;;;25.15;47.06
27146;BME280;17980;51.744;7.190;2022-07-06T11:13:52;102042.89;;;25.22;47.56
27146;BME280;17980;51.744;7.190;2022-07-06T11:16:21;102025.64;;;24.82;47.07
27146;BME280;17980;51.744;7.190;2022-07-06T11:18:50;102037.76;;;24.65;47.91
27146;BME280;17980;51.744;7.190;2022-07-06T11:21:21;102034.84;;;25.30;46.87
27146;BME280;17980;51.744;7.190;2022-07-06T11:26:30;102036.78;;;25.22;46.88
27146;BME280;17980;51.744;7.190;2022-07-06T11:28:59;102028.53;;;26.26;45.11
27146;BME280;17980;51.744;7.190;2022-07-06T11:31:26;102029.28;;;26.31;45.26
27146;BME280;17980;51.744;7.190;2022-07-06T11:33:53;102024.10;;;25.26;45.74
27146;BME280;17980;51.744;7.190;2022-07-06T11:36:22;102028.14;;;26.39;44.41
27146;BME280;17980;51.744;7.190;2022-07-06T11:38:50;102020.09;;;26.49;44.81
27146;BME280;17980;51.744;7.190;2022-07-06T11:41:18;102022.94;;;26.04;44.21
27146;BME280;17980;51.744;7.190;2022-07-06T11:43:47;102013.53;;;26.69;43.77
27146;BME280;17980;51.744;7.190;2022-07-06T11:46:24;102023.05;;;26.61;43.58
27146;BME280;17980;51.744;7.190;2022-07-06T11:48:54;102014.08;;;27.53;42.11
27146;BME280;17980;51.744;7.190;2022-07-06T12:24:25;102006.64;;;25.58;44.80
27146;BME280;17980;51.744;7.190;2022-07-06T12:26:54;102001.09;;;25.74;44.18
27146;BME280;17980;51.744;7.190;2022-07-06T12:29:22;101994.17;;;25.60;44.44
27146;BME280;17980;51.744;7.190;2022-07-06T12:31:51;101988.05;;;25.54;44.01
27146;BME280;17980;51.744;7.190;2022-07-06T12:34:20;101986.98;;;26.14;43.39
27146;BME280;17980;51.744;7.190;2022-07-06T12:36:49;101984.55;;;25.95;43.43
27146;BME280;17980;51.744;7.190;2022-07-06T12:39:18;101986.75;;;26.16;43.44
27146;BME280;17980;51.744;7.190;2022-07-06T12:41:47;101981.25;;;26.34;42.69
27146;BME280;17980;51.744;7.190;2022-07-06T12:44:17;101967.45;;;26.64;42.75
27146;BME280;17980;51.744;7.190;2022-07-06T12:46:45;101968.23;;;25.69;44.09
27146;BME280;17980;51.744;7.190;2022-07-06T12:49:18;101975.24;;;25.85;44.22
27146;BME280;17980;51.744;7.190;2022-07-06T12:51:55;101976.14;;;26.24;43.25
27146;BME280;17980;51.744;7.190;2022-07-06T12:54:24;101969.73;;;26.17;44.04
27146;BME280;17980;51.744;7.190;2022-07-06T12:57:10;101967.24;;;26.50;43.39
27146;BME280;17980;51.744;7.190;2022-07-06T13:02:21;101957.47;;;28.33;40.95
27146;BME280;17980;51.744;7.190;2022-07-06T13:04:57;101960.56;;;27.02;42.10
27146;BME280;17980;51.744;7.190;2022-07-06T13:07:26;101958.73;;;27.32;42.11
27146;BME280;17980;51.744;7.190;2022-07-06T13:09:54;101948.72;;;28.11;41.33
27146;BME280;17980;51.744;7.190;2022-07-06T13:12:23;101950.88;;;28.18;40.90
27146;BME280;17980;51.744;7.190;2022-07-06T13:14:51;101952.78;;;27.38;41.74
27146;BME280;17980;51.744;7.190;2022-07-06T13:20:09;101928.73;;;27.89;40.53
27146;BME280;17980;51.744;7.190;2022-07-06T13:22:37;101934.23;;;27.56;41.01
27146;BME280;17980;51.744;7.190;2022-07-06T13:25:07;101944.84;;;27.35;42.56
27146;BME280;17980;51.744;7.190;2022-07-06T13:27:34;101950.11;;;27.25;40.60
27146;BME280;17980;51.744;7.190;2022-07-06T13:30:02;101939.48;;;27.82;40.42
27146;BME280;17980;51.744;7.190;2022-07-06T13:32:30;101935.52;;;28.75;39.71
27146;BME280;17980;51.744;7.190;2022-07-06T13:34:57;101934.84;;;28.37;39.54
27146;BME280;17980;51.744;7.190;2022-07-06T13:37:25;101941.20;;;28.65;39.58
27146;BME280;17980;51.744;7.190;2022-07-06T13:39:52;101944.64;;;28.79;39.05
27146;BME280;17980;51.744;7.190;2022-07-06T13:42:20;101939.97;;;28.19;39.87
27146;BME280;17980;51.744;7.190;2022-07-06T13:44:47;101945.04;;;27.15;41.48
27146;BME280;17980;51.744;7.190;2022-07-06T13:47:22;101945.83;;;26.88;42.01
27146;BME280;17980;51.744;7.190;2022-07-06T13:49:50;101947.50;;;26.95;42.08
27146;BME280;17980;51.744;7.190;2022-07-06T13:54:55;101937.56;;;27.74;40.97
27146;BME280;17980;51.744;7.190;2022-07-06T13:57:23;101932.75;;;27.62;40.71
27146;BME280;17980;51.744;7.190;2022-07-06T13:59:51;101934.36;;;26.71;41.80
27146;BME280;17980;51.744;7.190;2022-07-06T14:02:19;101943.78;;;27.20;41.35
27146;BME280;17980;51.744;7.190;2022-07-06T14:04:46;101939.03;;;27.30;40.94
27146;BME280;17980;51.744;7.190;2022-07-06T14:07:14;101932.39;;;28.20;39.88
27146;BME280;17980;51.744;7.190;2022-07-06T14:09:41;101928.42;;;28.18;40.33